createdAt,value
2022-10-05T00:01:32.370Z,98087.00
2022-10-05T00:04:15.245Z,98082.00
2022-10-05T00:06:46.015Z,98077.00
2022-10-05T00:09:19.045Z,98081.00
2022-10-05T00:11:47.567Z,98075.00
2022-10-05T00:14:21.259Z,98070.00
2022-10-05T00:16:50.389Z,98071.00
2022-10-05T00:19:27.781Z,98068.00
2022-10-05T00:22:00.218Z,98062.00
2022-10-05T00:24:28.284Z,98052.00
2022-10-05T00:26:58.168Z,98052.00
2022-10-05T00:29:28.039Z,98061.00
2022-10-05T00:31:56.309Z,98052.00
2022-10-05T00:34:26.855Z,98069.00
2022-10-05T00:36:55.005Z,98051.00
2022-10-05T00:39:23.124Z,98049.00
2022-10-05T00:42:26.633Z,98039.00
2022-10-05T00:45:02.518Z,98045.00
2022-10-05T00:47:48.014Z,98050.00
2022-10-05T00:51:00.615Z,98039.00
2022-10-05T00:53:42.547Z,98030.00
2022-10-05T00:56:34.751Z,98040.00
2022-10-05T00:59:31.042Z,98030.00
2022-10-05T01:02:11.899Z,98025.00
2022-10-05T01:04:48.929Z,98037.00
2022-10-05T01:07:35.623Z,98016.00
2022-10-05T01:10:19.011Z,98030.00
2022-10-05T01:12:57.265Z,98031.00
2022-10-05T01:15:36.877Z,98017.00
2022-10-05T01:18:15.320Z,98015.00
2022-10-05T01:21:00.303Z,98022.00
2022-10-05T01:24:24.979Z,98023.00
2022-10-05T01:27:17.547Z,98023.00
2022-10-05T01:29:59.523Z,98014.00
2022-10-05T01:32:37.749Z,98015.00
2022-10-05T01:35:22.410Z,98034.00
2022-10-05T01:38:09.762Z,98023.00
2022-10-05T01:40:50.686Z,98028.00
2022-10-05T01:43:26.162Z,98027.00
2022-10-05T01:46:06.582Z,98040.00
2022-10-05T01:48:49.439Z,98042.00
2022-10-05T01:51:28.661Z,98016.00
2022-10-05T01:54:08.686Z,98026.00
2022-10-05T01:56:47.499Z,98032.00
2022-10-05T01:59:31.388Z,98026.00
2022-10-05T02:02:07.314Z,98028.00
2022-10-05T02:05:01.617Z,98022.00
2022-10-05T02:07:34.914Z,98041.00
2022-10-05T02:10:13.996Z,98030.00
2022-10-05T02:12:45.149Z,98013.00
2022-10-05T02:15:18.188Z,98022.00
2022-10-05T02:17:53.845Z,98036.00
2022-10-05T02:20:29.337Z,98045.00
2022-10-05T02:23:04.814Z,98036.00
2022-10-05T02:25:38.796Z,98047.00
2022-10-05T02:28:13.362Z,98043.00
2022-10-05T02:30:49.988Z,98049.00
2022-10-05T02:33:27.988Z,98037.00
2022-10-05T02:36:01.787Z,98040.00
2022-10-05T02:38:45.216Z,98016.00
2022-10-05T02:41:31.633Z,98008.00
2022-10-05T02:44:11.929Z,97999.00
2022-10-05T02:46:49.956Z,97998.00
2022-10-05T02:49:33.424Z,98005.00
2022-10-05T02:52:15.597Z,97995.00
2022-10-05T02:54:55.111Z,97995.00
2022-10-05T02:57:34.654Z,97995.00
2022-10-05T03:00:10.618Z,98008.00
2022-10-05T03:02:48.449Z,98004.00
2022-10-05T03:05:26.182Z,98013.00
2022-10-05T03:08:02.909Z,98021.00
2022-10-05T03:10:40.994Z,98004.00
2022-10-05T03:13:21.562Z,98000.00
2022-10-05T03:16:10.247Z,98017.00
2022-10-05T03:18:58.517Z,97999.00
2022-10-05T03:21:50.332Z,98008.00
2022-10-05T03:24:52.925Z,98003.00
2022-10-05T03:27:37.518Z,97998.00
2022-10-05T03:30:14.781Z,98002.00
2022-10-05T03:32:58.232Z,97984.00
2022-10-05T03:35:33.482Z,97997.00
2022-10-05T03:38:16.409Z,97997.00
2022-10-05T03:40:55.707Z,97990.00
2022-10-05T03:44:03.209Z,97989.00
2022-10-05T03:46:50.397Z,97993.00
2022-10-05T03:49:31.454Z,97991.00
2022-10-05T03:52:07.984Z,97982.00
2022-10-05T03:54:45.203Z,97985.00
2022-10-05T03:57:19.888Z,97980.00
2022-10-05T03:59:59.797Z,97983.00
2022-10-05T04:02:34.594Z,97975.00
2022-10-05T04:05:14.809Z,97970.00
2022-10-05T04:07:51.477Z,97969.00
2022-10-05T04:10:27.265Z,97958.00
2022-10-05T04:13:03.943Z,97961.00
2022-10-05T04:15:40.794Z,97954.00
2022-10-05T04:18:26.544Z,97950.00
2022-10-05T04:21:03.094Z,97952.00
2022-10-05T04:23:47.913Z,97948.00
2022-10-05T04:26:25.812Z,97945.00
2022-10-05T04:29:00.078Z,97947.00
2022-10-05T04:31:56.873Z,97952.00
2022-10-05T04:34:49.745Z,97946.00
2022-10-05T04:37:29.738Z,97933.00
2022-10-05T04:40:17.053Z,97938.00
2022-10-05T04:42:59.690Z,97941.00
2022-10-05T04:45:50.716Z,97946.00
2022-10-05T04:48:37.707Z,97942.00
2022-10-05T04:51:27.233Z,97950.00
2022-10-05T04:54:02.616Z,97955.00
2022-10-05T04:56:41.105Z,97963.00
2022-10-05T04:59:58.754Z,97958.00
2022-10-05T05:02:44.212Z,97961.00
2022-10-05T05:05:53.037Z,97975.00
2022-10-05T05:08:58.046Z,97978.00
2022-10-05T05:11:37.256Z,97982.00
2022-10-05T05:14:34.908Z,97976.00
2022-10-05T05:17:19.978Z,97977.00
2022-10-05T05:20:02.919Z,97987.00
2022-10-05T05:22:47.168Z,97983.00
2022-10-05T05:25:35.751Z,97987.00
2022-10-05T05:28:18.825Z,97982.00
2022-10-05T05:31:01.100Z,97990.00
2022-10-05T05:33:48.244Z,97990.00
2022-10-05T05:36:46.486Z,97993.00
2022-10-05T05:39:27.088Z,98005.00
2022-10-05T05:42:06.202Z,97998.00
2022-10-05T05:44:42.148Z,97998.00
2022-10-05T05:47:21.566Z,97986.00
2022-10-05T05:50:13.802Z,97996.00
2022-10-05T05:52:47.942Z,97998.00
2022-10-05T05:55:29.043Z,97992.00
2022-10-05T05:58:10.531Z,98013.00
2022-10-05T06:00:46.694Z,98005.00
2022-10-05T06:03:23.859Z,98004.00
2022-10-05T06:05:57.702Z,98011.00
2022-10-05T06:08:37.767Z,98015.00
2022-10-05T06:11:21.022Z,98023.00
2022-10-05T06:13:49.935Z,98016.00
2022-10-05T06:16:26.375Z,98034.00
2022-10-05T06:19:01.625Z,98029.00
2022-10-05T06:21:40.356Z,98033.00
2022-10-05T06:24:22.875Z,98022.00
2022-10-05T06:27:22.618Z,98039.00
2022-10-05T06:30:11.035Z,98035.00
2022-10-05T06:33:07.640Z,98035.00
2022-10-05T06:35:59.228Z,98043.00
2022-10-05T06:39:06.810Z,98053.00
2022-10-05T06:41:52.333Z,98046.00
2022-10-05T06:44:29.670Z,98055.00
2022-10-05T06:47:27.920Z,98050.00
2022-10-05T06:50:19.683Z,98060.00
2022-10-05T06:53:36.055Z,98059.00
2022-10-05T06:56:14.698Z,98058.00
2022-10-05T06:58:56.026Z,98057.00
2022-10-05T07:01:47.753Z,98070.00
2022-10-05T07:04:38.945Z,98072.00
2022-10-05T07:07:21.884Z,98059.00
2022-10-05T07:10:13.556Z,98073.00
2022-10-05T07:12:57.220Z,98084.00
2022-10-05T07:15:51.077Z,98083.00
2022-10-05T07:18:46.951Z,98080.00
2022-10-05T07:21:31.381Z,98091.00
2022-10-05T07:24:14.963Z,98075.00
2022-10-05T07:26:51.469Z,98083.00
2022-10-05T07:29:33.411Z,98080.00
2022-10-05T07:32:21.317Z,98075.00
2022-10-05T07:35:00.612Z,98082.00
2022-10-05T07:37:57.776Z,98081.00
2022-10-05T07:40:39.179Z,98081.00
2022-10-05T07:43:22.849Z,98076.00
2022-10-05T07:45:59.115Z,98095.00
2022-10-05T07:48:39.014Z,98086.00
2022-10-05T07:51:22.453Z,98099.00
2022-10-05T07:54:07.625Z,98089.00
2022-10-05T07:56:43.359Z,98079.00
2022-10-05T07:59:28.122Z,98074.00
2022-10-05T08:02:13.161Z,98089.00
2022-10-05T08:04:52.442Z,98083.00
2022-10-05T08:07:21.351Z,98084.00
2022-10-05T08:09:59.981Z,98085.00
2022-10-05T08:12:35.742Z,98081.00
2022-10-05T08:15:14.854Z,98091.00
2022-10-05T08:17:54.118Z,98084.00
2022-10-05T08:20:39.805Z,98097.00
2022-10-05T08:23:22.312Z,98099.00
2022-10-05T08:26:06.315Z,98086.00
2022-10-05T08:28:39.317Z,98094.00
2022-10-05T08:31:20.616Z,98095.00
2022-10-05T08:34:02.796Z,98093.00
2022-10-05T08:36:53.557Z,98086.00
2022-10-05T08:39:25.688Z,98097.00
2022-10-05T08:42:49.499Z,98087.00
2022-10-05T08:46:01.589Z,98093.00
2022-10-05T08:49:16.433Z,98088.00
2022-10-05T08:52:10.538Z,98086.00
2022-10-05T08:55:35.257Z,98082.00
2022-10-05T08:58:47.105Z,98099.00
2022-10-05T09:01:24.206Z,98094.00
2022-10-05T09:04:46.173Z,98082.00
2022-10-05T09:07:30.386Z,98089.00
2022-10-05T09:10:46.145Z,98078.00
2022-10-05T09:13:57.720Z,98090.00
2022-10-05T09:17:15.576Z,98083.00
2022-10-05T09:20:30.250Z,98081.00
2022-10-05T09:23:04.182Z,98085.00
2022-10-05T09:25:55.371Z,98080.00
2022-10-05T09:28:38.036Z,98076.00
2022-10-05T09:31:38.024Z,98087.00
2022-10-05T09:35:05.675Z,98076.00
2022-10-05T09:38:14.999Z,98075.00
2022-10-05T09:41:39.033Z,98072.00
2022-10-05T09:45:02.796Z,98061.00
2022-10-05T09:48:34.066Z,98079.00
2022-10-05T09:51:51.152Z,98070.00
2022-10-05T09:55:10.776Z,98062.00
2022-10-05T09:58:20.261Z,98071.00
2022-10-05T10:01:29.184Z,98066.00
2022-10-05T10:04:38.709Z,98056.00
2022-10-05T10:07:48.511Z,98056.00
2022-10-05T10:10:55.615Z,98048.00
2022-10-05T10:13:53.696Z,98059.00
2022-10-05T10:16:57.375Z,98055.00
2022-10-05T10:20:23.081Z,98042.00
2022-10-05T10:23:24.747Z,98041.00
2022-10-05T10:26:49.041Z,98040.00
2022-10-05T10:30:19.500Z,98049.00
2022-10-05T10:33:45.587Z,98048.00
2022-10-05T10:36:21.788Z,98036.00
2022-10-05T10:39:03.137Z,98032.00
2022-10-05T10:42:14.741Z,98046.00
2022-10-05T10:45:13.681Z,98032.00
2022-10-05T10:48:00.198Z,98029.00
2022-10-05T10:51:18.526Z,98017.00
2022-10-05T10:54:33.079Z,98029.00
2022-10-05T10:57:10.199Z,98038.00
2022-10-05T11:00:23.771Z,98029.00
2022-10-05T11:03:22.750Z,98013.00
2022-10-05T11:06:18.847Z,98018.00
2022-10-05T11:09:46.776Z,98013.00
2022-10-05T11:13:08.528Z,98006.00
2022-10-05T11:16:18.704Z,97991.00
2022-10-05T11:19:12.204Z,98011.00
2022-10-05T11:22:01.519Z,97996.00
2022-10-05T11:25:08.887Z,98003.00
2022-10-05T11:28:04.926Z,97997.00
2022-10-05T11:31:29.254Z,97984.00
2022-10-05T11:34:42.908Z,97993.00
2022-10-05T11:37:49.652Z,97993.00
2022-10-05T11:41:03.202Z,97999.00
2022-10-05T11:44:22.325Z,97997.00
2022-10-05T11:47:04.568Z,97986.00
2022-10-05T11:49:43.810Z,97988.00
2022-10-05T11:52:22.311Z,97986.00
2022-10-05T11:55:19.326Z,97970.00
2022-10-05T11:57:56.943Z,97981.00
2022-10-05T12:00:41.140Z,97983.00
2022-10-05T12:03:38.722Z,97968.00
2022-10-05T12:06:30.606Z,97974.00
2022-10-05T12:09:18.068Z,97976.00
2022-10-05T12:12:07.622Z,97965.00
2022-10-05T12:14:54.963Z,97955.00
2022-10-05T12:17:36.912Z,97956.00
2022-10-05T12:20:17.060Z,97953.00
2022-10-05T12:22:53.314Z,97965.00
2022-10-05T12:25:31.622Z,97970.00
2022-10-05T12:28:07.116Z,97970.00
2022-10-05T12:31:03.311Z,97963.00
2022-10-05T12:33:41.270Z,97953.00
2022-10-05T12:36:16.039Z,97956.00
2022-10-05T12:38:54.668Z,97964.00
2022-10-05T12:41:33.037Z,97965.00
2022-10-05T12:44:24.294Z,97968.00
2022-10-05T12:47:13.408Z,97953.00
2022-10-05T12:49:59.086Z,97957.00
2022-10-05T12:52:48.268Z,97960.00
2022-10-05T12:55:27.062Z,97966.00
2022-10-05T12:58:10.110Z,97956.00
2022-10-05T13:00:49.822Z,97965.00
2022-10-05T13:03:26.255Z,97964.00
2022-10-05T13:06:10.819Z,97958.00
2022-10-05T13:08:54.616Z,97972.00
2022-10-05T13:11:31.694Z,97959.00
2022-10-05T13:14:12.515Z,97962.00
2022-10-05T13:16:55.161Z,97948.00
2022-10-05T13:19:40.027Z,97947.00
2022-10-05T13:22:27.534Z,97949.00
2022-10-05T13:25:17.315Z,97945.00
2022-10-05T13:28:06.167Z,97935.00
2022-10-05T13:30:35.212Z,97948.00
2022-10-05T13:33:17.911Z,97941.00
2022-10-05T13:36:00.405Z,97941.00
2022-10-05T13:38:43.901Z,97934.00
2022-10-05T13:41:27.534Z,97936.00
2022-10-05T13:44:14.889Z,97939.00
2022-10-05T13:46:49.718Z,97933.00
2022-10-05T13:49:28.851Z,97933.00
2022-10-05T13:52:12.078Z,97936.00
2022-10-05T13:54:51.881Z,97935.00
2022-10-05T13:57:45.070Z,97934.00
2022-10-05T14:00:26.275Z,97924.00
2022-10-05T14:02:57.801Z,97924.00
2022-10-05T14:05:28.954Z,97926.00
2022-10-05T14:08:17.347Z,97927.00
2022-10-05T14:10:48.562Z,97916.00
2022-10-05T14:13:24.858Z,97919.00
2022-10-05T14:16:04.590Z,97926.00
2022-10-05T14:18:37.869Z,97922.00
2022-10-05T14:21:22.127Z,97918.00
2022-10-05T14:23:52.488Z,97913.00
2022-10-05T14:26:33.841Z,97909.00
2022-10-05T14:29:16.575Z,97911.00
2022-10-05T14:31:54.637Z,97912.00
2022-10-05T14:34:34.720Z,97904.00
2022-10-05T14:37:19.036Z,97905.00
2022-10-05T14:39:51.900Z,97907.00
2022-10-05T14:42:24.552Z,97889.00
2022-10-05T14:45:15.225Z,97900.00
2022-10-05T14:47:50.650Z,97889.00
2022-10-05T14:50:26.003Z,97890.00
2022-10-05T14:53:16.562Z,97893.00
2022-10-05T14:56:32.163Z,97887.00
2022-10-05T14:59:23.235Z,97891.00
2022-10-05T15:02:01.952Z,97886.00
2022-10-05T15:04:49.878Z,97882.00
2022-10-05T15:07:28.330Z,97882.00
2022-10-05T15:10:22.509Z,97886.00
2022-10-05T15:12:55.026Z,97885.00
2022-10-05T15:15:35.955Z,97884.00
2022-10-05T15:18:19.615Z,97884.00
2022-10-05T15:21:00.335Z,97888.00
2022-10-05T15:23:41.095Z,97881.00
2022-10-05T15:26:32.109Z,97877.00
2022-10-05T15:29:10.998Z,97892.00
2022-10-05T15:31:51.123Z,97891.00
2022-10-05T15:34:29.386Z,97886.00
2022-10-05T15:37:09.559Z,97883.00
2022-10-05T15:39:48.846Z,97886.00
2022-10-05T15:42:21.178Z,97873.00
2022-10-05T15:45:06.119Z,97872.00
2022-10-05T15:47:52.551Z,97875.00
2022-10-05T15:50:26.931Z,97880.00
2022-10-05T15:53:05.809Z,97869.00
2022-10-05T15:55:47.074Z,97875.00
2022-10-05T15:58:53.748Z,97874.00
2022-10-05T16:01:44.973Z,97879.00
2022-10-05T16:04:21.441Z,97882.00
2022-10-05T16:07:12.656Z,97880.00
2022-10-05T16:09:53.210Z,97885.00
2022-10-05T16:12:43.632Z,97892.00
2022-10-05T16:15:26.319Z,97887.00
2022-10-05T16:18:32.701Z,97889.00
2022-10-05T16:21:13.997Z,97890.00
2022-10-05T16:24:05.023Z,97888.00
2022-10-05T16:26:56.869Z,97881.00
2022-10-05T16:29:40.286Z,97878.00
2022-10-05T16:32:17.543Z,97885.00
2022-10-05T16:35:09.430Z,97882.00
2022-10-05T16:37:49.595Z,97890.00
2022-10-05T16:40:33.161Z,97879.00
2022-10-05T16:43:19.616Z,97884.00
2022-10-05T16:46:10.350Z,97881.00
2022-10-05T16:48:53.277Z,97893.00
2022-10-05T16:51:31.944Z,97899.00
2022-10-05T16:54:18.333Z,97900.00
2022-10-05T16:56:53.524Z,97888.00
2022-10-05T17:00:19.617Z,97895.00
2022-10-05T17:03:08.590Z,97893.00
2022-10-05T17:06:17.744Z,97892.00
2022-10-05T17:09:29.215Z,97901.00
2022-10-05T17:12:17.131Z,97908.00
2022-10-05T17:15:10.227Z,97894.00
2022-10-05T17:18:16.241Z,97910.00
2022-10-05T17:20:52.106Z,97911.00
2022-10-05T17:23:54.440Z,97913.00
2022-10-05T17:26:55.618Z,97918.00
2022-10-05T17:29:42.682Z,97917.00
2022-10-05T17:32:33.422Z,97918.00
2022-10-05T17:35:18.913Z,97913.00
2022-10-05T17:38:14.487Z,97914.00
2022-10-05T17:41:15.308Z,97918.00
2022-10-05T17:44:24.794Z,97928.00
2022-10-05T17:46:56.727Z,97914.00
2022-10-05T17:50:09.690Z,97926.00
2022-10-05T17:52:59.967Z,97928.00
2022-10-05T17:55:47.835Z,97939.00
2022-10-05T17:59:03.513Z,97937.00
2022-10-05T18:01:35.922Z,97933.00
2022-10-05T18:04:34.416Z,97934.00
2022-10-05T18:07:16.606Z,97926.00
2022-10-05T18:10:28.936Z,97931.00
2022-10-05T18:13:23.843Z,97932.00
2022-10-05T18:15:53.882Z,97931.00
2022-10-05T18:18:57.217Z,97936.00
2022-10-05T18:22:01.385Z,97954.00
2022-10-05T18:25:03.834Z,97942.00
2022-10-05T18:28:09.993Z,97938.00
2022-10-05T18:31:01.796Z,97959.00
2022-10-05T18:33:59.530Z,97970.00
2022-10-05T18:36:55.978Z,97955.00
2022-10-05T18:39:46.402Z,97967.00
2022-10-05T18:42:27.142Z,97952.00
2022-10-05T18:45:02.723Z,97948.00
2022-10-05T18:47:45.190Z,97952.00
2022-10-05T18:50:27.820Z,97953.00
2022-10-05T18:53:15.543Z,97958.00
2022-10-05T18:55:54.329Z,97961.00
2022-10-05T18:58:29.387Z,97957.00
2022-10-05T19:01:43.511Z,97959.00
2022-10-05T19:04:29.182Z,97958.00
2022-10-05T19:07:18.691Z,97962.00
2022-10-05T19:10:05.356Z,97951.00
2022-10-05T19:12:53.018Z,97956.00
2022-10-05T19:15:30.765Z,97956.00
2022-10-05T19:18:36.198Z,97965.00
2022-10-05T19:21:24.548Z,97962.00
2022-10-05T19:24:33.718Z,97958.00
2022-10-05T19:27:12.420Z,97969.00
2022-10-05T19:30:11.479Z,97974.00
2022-10-05T19:33:04.562Z,97982.00
2022-10-05T19:35:48.565Z,97978.00
2022-10-05T19:38:30.161Z,97991.00
2022-10-05T19:41:12.777Z,97995.00
2022-10-05T19:44:14.407Z,97994.00
2022-10-05T19:46:59.696Z,97995.00
2022-10-05T19:49:43.497Z,97994.00
2022-10-05T19:52:17.019Z,97994.00
2022-10-05T19:54:48.941Z,97996.00
2022-10-05T19:57:18.821Z,98006.00
2022-10-05T19:59:48.954Z,98004.00
2022-10-05T20:02:18.376Z,97998.00
2022-10-05T20:04:49.526Z,97999.00
2022-10-05T20:07:20.681Z,98010.00
2022-10-05T20:09:58.125Z,98009.00
2022-10-05T20:12:50.503Z,98004.00
2022-10-05T20:15:39.970Z,98015.00
2022-10-05T20:19:08.233Z,98030.00
2022-10-05T20:21:44.726Z,98026.00
2022-10-05T20:24:15.949Z,98037.00
2022-10-05T20:27:16.080Z,98050.00
2022-10-05T20:29:46.840Z,98050.00
2022-10-05T20:32:17.920Z,98058.00
2022-10-05T20:34:49.311Z,98061.00
2022-10-05T20:37:19.999Z,98066.00
2022-10-05T20:39:48.470Z,98078.00
2022-10-05T20:42:19.294Z,98072.00
2022-10-05T20:44:52.903Z,98083.00
2022-10-05T20:47:24.020Z,98080.00
2022-10-05T20:49:53.351Z,98084.00
2022-10-05T20:52:23.090Z,98090.00
2022-10-05T20:54:58.699Z,98089.00
2022-10-05T20:57:28.219Z,98094.00
2022-10-05T20:59:56.417Z,98100.00
2022-10-05T21:02:25.043Z,98093.00
2022-10-05T21:04:53.280Z,98101.00
2022-10-05T21:07:23.257Z,98107.00
2022-10-05T21:09:51.603Z,98107.00
2022-10-05T21:12:19.782Z,98125.00
2022-10-05T21:14:49.326Z,98118.00
2022-10-05T21:17:17.421Z,98134.00
2022-10-05T21:19:45.614Z,98128.00
2022-10-05T21:22:13.954Z,98120.00
2022-10-05T21:24:42.612Z,98128.00
2022-10-05T21:27:11.009Z,98128.00
2022-10-05T21:29:41.070Z,98129.00
2022-10-05T21:32:11.870Z,98135.00
2022-10-05T21:34:40.646Z,98124.00
2022-10-05T21:37:09.745Z,98147.00
2022-10-05T21:39:37.821Z,98145.00
2022-10-05T21:42:06.070Z,98148.00
2022-10-05T21:44:34.195Z,98151.00
2022-10-05T21:47:04.180Z,98154.00
2022-10-05T21:49:34.302Z,98156.00
2022-10-05T21:52:05.362Z,98160.00
2022-10-05T21:54:35.012Z,98165.00
2022-10-05T21:57:03.906Z,98164.00
2022-10-05T21:59:35.622Z,98179.00
2022-10-05T22:02:03.710Z,98168.00
2022-10-05T22:04:33.188Z,98183.00
2022-10-05T22:07:01.331Z,98173.00
2022-10-05T22:09:29.451Z,98186.00
2022-10-05T22:11:57.660Z,98190.00
2022-10-05T22:14:26.034Z,98184.00
2022-10-05T22:16:54.630Z,98186.00
2022-10-05T22:19:22.872Z,98181.00
2022-10-05T22:21:52.476Z,98188.00
2022-10-05T22:24:20.573Z,98199.00
2022-10-05T22:26:51.573Z,98194.00
2022-10-05T22:29:21.219Z,98192.00
2022-10-05T22:31:50.178Z,98194.00
2022-10-05T22:34:19.537Z,98196.00
2022-10-05T22:36:49.242Z,98204.00
2022-10-05T22:39:19.221Z,98200.00
2022-10-05T22:41:47.471Z,98209.00
2022-10-05T22:44:15.713Z,98209.00
2022-10-05T22:46:43.969Z,98209.00
2022-10-05T22:49:12.081Z,98196.00
2022-10-05T22:51:40.252Z,98212.00
2022-10-05T22:54:08.344Z,98203.00
2022-10-05T22:56:37.970Z,98203.00
2022-10-05T22:59:06.098Z,98224.00
2022-10-05T23:01:34.311Z,98206.00
2022-10-05T23:04:04.328Z,98210.00
2022-10-05T23:06:32.792Z,98220.00
2022-10-05T23:09:00.891Z,98220.00
2022-10-05T23:11:31.317Z,98215.00
2022-10-05T23:14:00.899Z,98218.00
2022-10-05T23:16:30.400Z,98221.00
2022-10-05T23:19:00.245Z,98225.00
2022-10-05T23:21:30.742Z,98223.00
2022-10-05T23:23:58.929Z,98216.00
2022-10-05T23:26:27.459Z,98232.00
2022-10-05T23:28:55.562Z,98239.00
2022-10-05T23:31:28.775Z,98216.00
2022-10-05T23:33:57.631Z,98224.00
2022-10-05T23:36:28.246Z,98228.00
2022-10-05T23:38:56.321Z,98229.00
2022-10-05T23:41:25.387Z,98231.00
2022-10-05T23:43:55.775Z,98226.00
2022-10-05T23:46:25.341Z,98241.00
2022-10-05T23:48:53.456Z,98242.00
2022-10-05T23:51:21.777Z,98234.00
2022-10-05T23:53:49.943Z,98233.00
2022-10-05T23:56:18.032Z,98236.00
2022-10-05T23:58:46.210Z,98246.00
